sensor_id;sensor_type;location;lat;lon;timestamp;P1;durP1;ratioP1;P2;durP2;ratioP2
68985;SDS011;56035;37.534;-122.308;2024-02-23T00:00:55;5.75;;;1.85;;
68985;SDS011;56035;37.534;-122.308;2024-02-23T00:03:21;4.18;;;1.20;;
68985;SDS011;56035;37.534;-122.308;2024-02-23T00:05:48;5.53;;;1.58;;
68985;SDS011;56035;37.534;-122.308;2024-02-23T00:08:14;6.82;;;1.30;;
68985;SDS011;56035;37.534;-122.308;2024-02-23T00:10:40;4.07;;;1.30;;
68985;SDS011;56035;37.534;-122.308;2024-02-23T00:13:07;8.60;;;1.40;;
68985;SDS011;56035;37.534;-122.308;2024-02-23T00:15:33;5.50;;;1.48;;
68985;SDS011;56035;37.534;-122.308;2024-02-23T00:17:59;6.72;;;1.75;;
68985;SDS011;56035;37.534;-122.308;2024-02-23T00:20:28;3.63;;;1.02;;
68985;SDS011;56035;37.534;-122.308;2024-02-23T00:22:55;4.50;;;1.20;;
68985;SDS011;56035;37.534;-122.308;2024-02-23T00:25:21;5.15;;;1.48;;
68985;SDS011;56035;37.534;-122.308;2024-02-23T00:30:14;3.83;;;1.35;;
68985;SDS011;56035;37.534;-122.308;2024-02-23T00:32:41;7.18;;;2.15;;
68985;SDS011;56035;37.534;-122.308;2024-02-23T00:35:07;4.53;;;1.33;;
68985;SDS011;56035;37.534;-122.308;2024-02-23T00:37:33;6.38;;;1.50;;
68985;SDS011;56035;37.534;-122.308;2024-02-23T00:42:32;7.47;;;1.90;;
68985;SDS011;56035;37.534;-122.308;2024-02-23T00:44:58;5.28;;;1.65;;
68985;SDS011;56035;37.534;-122.308;2024-02-23T00:47:24;6.80;;;1.60;;
68985;SDS011;56035;37.534;-122.308;2024-02-23T00:49:52;6.47;;;1.60;;
68985;SDS011;56035;37.534;-122.308;2024-02-23T00:52:18;5.88;;;1.42;;
68985;SDS011;56035;37.534;-122.308;2024-02-23T00:54:44;11.23;;;1.80;;
68985;SDS011;56035;37.534;-122.308;2024-02-23T00:57:11;9.30;;;1.70;;
68985;SDS011;56035;37.534;-122.308;2024-02-23T00:59:37;7.22;;;1.73;;
68985;SDS011;56035;37.534;-122.308;2024-02-23T01:02:04;8.85;;;1.83;;
68985;SDS011;56035;37.534;-122.308;2024-02-23T01:04:30;8.10;;;1.58;;
68985;SDS011;56035;37.534;-122.308;2024-02-23T01:06:57;7.47;;;2.08;;
68985;SDS011;56035;37.534;-122.308;2024-02-23T01:09:25;7.50;;;2.77;;
68985;SDS011;56035;37.534;-122.308;2024-02-23T01:11:51;8.60;;;2.33;;
68985;SDS011;56035;37.534;-122.308;2024-02-23T01:14:18;6.57;;;1.67;;
68985;SDS011;56035;37.534;-122.308;2024-02-23T01:16:44;9.30;;;1.75;;
68985;SDS011;56035;37.534;-122.308;2024-02-23T01:19:11;7.40;;;1.60;;
68985;SDS011;56035;37.534;-122.308;2024-02-23T01:21:37;4.78;;;2.20;;
68985;SDS011;56035;37.534;-122.308;2024-02-23T01:24:04;5.13;;;1.30;;
68985;SDS011;56035;37.534;-122.308;2024-02-23T01:26:30;7.85;;;1.92;;
68985;SDS011;56035;37.534;-122.308;2024-02-23T01:28:57;6.97;;;1.70;;
68985;SDS011;56035;37.534;-122.308;2024-02-23T01:33:50;6.77;;;1.77;;
68985;SDS011;56035;37.534;-122.308;2024-02-23T01:36:16;4.18;;;1.60;;
68985;SDS011;56035;37.534;-122.308;2024-02-23T01:38:43;3.92;;;1.92;;
68985;SDS011;56035;37.534;-122.308;2024-02-23T01:41:10;6.88;;;1.60;;
68985;SDS011;56035;37.534;-122.308;2024-02-23T01:43:37;4.70;;;2.00;;
68985;SDS011;56035;37.534;-122.308;2024-02-23T01:46:03;6.18;;;1.80;;
68985;SDS011;56035;37.534;-122.308;2024-02-23T01:48:31;8.60;;;2.13;;
68985;SDS011;56035;37.534;-122.308;2024-02-23T01:50:58;4.63;;;1.70;;
68985;SDS011;56035;37.534;-122.308;2024-02-23T01:53:24;6.18;;;1.83;;
68985;SDS011;56035;37.534;-122.308;2024-02-23T01:55:52;5.20;;;2.20;;
68985;SDS011;56035;37.534;-122.308;2024-02-23T01:58:19;7.43;;;1.53;;
68985;SDS011;56035;37.534;-122.308;2024-02-23T02:00:46;6.57;;;1.73;;
68985;SDS011;56035;37.534;-122.308;2024-02-23T02:03:12;5.30;;;1.63;;
68985;SDS011;56035;37.534;-122.308;2024-02-23T02:05:39;8.32;;;1.85;;
68985;SDS011;56035;37.534;-122.308;2024-02-23T02:08:05;6.63;;;2.22;;
68985;SDS011;56035;37.534;-122.308;2024-02-23T02:10:32;8.40;;;2.55;;
68985;SDS011;56035;37.534;-122.308;2024-02-23T02:13:02;9.00;;;1.85;;
68985;SDS011;56035;37.534;-122.308;2024-02-23T02:15:29;8.13;;;2.80;;
68985;SDS011;56035;37.534;-122.308;2024-02-23T02:17:56;4.05;;;1.58;;
68985;SDS011;56035;37.534;-122.308;2024-02-23T02:20:23;6.10;;;1.92;;
68985;SDS011;56035;37.534;-122.308;2024-02-23T02:22:53;5.20;;;1.80;;
68985;SDS011;56035;37.534;-122.308;2024-02-23T02:25:20;7.05;;;2.40;;
68985;SDS011;56035;37.534;-122.308;2024-02-23T02:27:46;5.70;;;2.20;;
68985;SDS011;56035;37.534;-122.308;2024-02-23T02:30:13;9.38;;;2.20;;
68985;SDS011;56035;37.534;-122.308;2024-02-23T02:32:40;5.25;;;2.10;;
68985;SDS011;56035;37.534;-122.308;2024-02-23T02:35:06;6.57;;;2.20;;
68985;SDS011;56035;37.534;-122.308;2024-02-23T02:37:33;5.90;;;1.90;;
68985;SDS011;56035;37.534;-122.308;2024-02-23T02:40:00;7.10;;;2.72;;
68985;SDS011;56035;37.534;-122.308;2024-02-23T02:42:26;7.90;;;2.33;;
68985;SDS011;56035;37.534;-122.308;2024-02-23T02:44:54;8.37;;;2.50;;
68985;SDS011;56035;37.534;-122.308;2024-02-23T02:47:20;8.70;;;2.78;;
68985;SDS011;56035;37.534;-122.308;2024-02-23T02:49:46;7.93;;;2.60;;
68985;SDS011;56035;37.534;-122.308;2024-02-23T02:52:14;9.03;;;2.93;;
68985;SDS011;56035;37.534;-122.308;2024-02-23T02:54:40;7.40;;;2.50;;
68985;SDS011;56035;37.534;-122.308;2024-02-23T02:57:07;7.68;;;2.50;;
68985;SDS011;56035;37.534;-122.308;2024-02-23T02:59:36;10.48;;;2.35;;
68985;SDS011;56035;37.534;-122.308;2024-02-23T03:02:03;8.20;;;3.47;;
68985;SDS011;56035;37.534;-122.308;2024-02-23T03:04:29;7.45;;;2.92;;
68985;SDS011;56035;37.534;-122.308;2024-02-23T03:06:56;9.55;;;3.10;;
68985;SDS011;56035;37.534;-122.308;2024-02-23T03:09:22;6.88;;;2.63;;
68985;SDS011;56035;37.534;-122.308;2024-02-23T03:11:49;8.57;;;2.45;;
68985;SDS011;56035;37.534;-122.308;2024-02-23T03:14:15;10.13;;;3.08;;
68985;SDS011;56035;37.534;-122.308;2024-02-23T03:16:43;10.97;;;2.30;;
68985;SDS011;56035;37.534;-122.308;2024-02-23T03:19:10;7.97;;;2.50;;
68985;SDS011;56035;37.534;-122.308;2024-02-23T03:21:36;10.15;;;2.38;;
68985;SDS011;56035;37.534;-122.308;2024-02-23T03:24:02;9.77;;;2.88;;
68985;SDS011;56035;37.534;-122.308;2024-02-23T03:26:29;11.65;;;2.92;;
68985;SDS011;56035;37.534;-122.308;2024-02-23T03:28:55;6.60;;;2.70;;
68985;SDS011;56035;37.534;-122.308;2024-02-23T03:31:22;9.15;;;2.72;;
68985;SDS011;56035;37.534;-122.308;2024-02-23T03:33:48;8.73;;;3.17;;
68985;SDS011;56035;37.534;-122.308;2024-02-23T03:36:14;8.95;;;3.03;;
68985;SDS011;56035;37.534;-122.308;2024-02-23T03:38:41;13.80;;;2.88;;
68985;SDS011;56035;37.534;-122.308;2024-02-23T03:41:07;8.45;;;2.78;;
68985;SDS011;56035;37.534;-122.308;2024-02-23T03:43:34;5.78;;;2.50;;
68985;SDS011;56035;37.534;-122.308;2024-02-23T03:46:03;8.30;;;2.73;;
68985;SDS011;56035;37.534;-122.308;2024-02-23T03:48:31;18.00;;;2.70;;
68985;SDS011;56035;37.534;-122.308;2024-02-23T03:50:58;10.02;;;2.60;;
68985;SDS011;56035;37.534;-122.308;2024-02-23T03:53:24;9.30;;;2.25;;
68985;SDS011;56035;37.534;-122.308;2024-02-23T03:55:51;6.60;;;2.47;;
68985;SDS011;56035;37.534;-122.308;2024-02-23T03:58:17;8.27;;;3.50;;
68985;SDS011;56035;37.534;-122.308;2024-02-23T04:00:43;10.43;;;2.67;;
68985;SDS011;56035;37.534;-122.308;2024-02-23T04:03:10;11.10;;;3.35;;
68985;SDS011;56035;37.534;-122.308;2024-02-23T04:05:36;9.45;;;2.30;;
68985;SDS011;56035;37.534;-122.308;2024-02-23T04:08:03;8.13;;;2.50;;
68985;SDS011;56035;37.534;-122.308;2024-02-23T04:10:29;7.70;;;3.05;;
68985;SDS011;56035;37.534;-122.308;2024-02-23T04:12:57;8.07;;;2.78;;
68985;SDS011;56035;37.534;-122.308;2024-02-23T04:15:23;11.53;;;2.70;;
68985;SDS011;56035;37.534;-122.308;2024-02-23T04:17:50;15.35;;;2.70;;
68985;SDS011;56035;37.534;-122.308;2024-02-23T04:20:16;14.30;;;3.55;;
68985;SDS011;56035;37.534;-122.308;2024-02-23T04:22:42;7.80;;;2.53;;
68985;SDS011;56035;37.534;-122.308;2024-02-23T04:25:09;8.27;;;2.53;;
68985;SDS011;56035;37.534;-122.308;2024-02-23T04:27:35;7.75;;;2.72;;
68985;SDS011;56035;37.534;-122.308;2024-02-23T04:30:03;8.40;;;2.83;;
68985;SDS011;56035;37.534;-122.308;2024-02-23T04:32:30;11.10;;;2.83;;
68985;SDS011;56035;37.534;-122.308;2024-02-23T04:34:56;9.40;;;2.70;;
68985;SDS011;56035;37.534;-122.308;2024-02-23T04:37:23;9.52;;;3.30;;
68985;SDS011;56035;37.534;-122.308;2024-02-23T04:39:49;8.77;;;2.80;;
68985;SDS011;56035;37.534;-122.308;2024-02-23T04:42:16;6.72;;;2.55;;
68985;SDS011;56035;37.534;-122.308;2024-02-23T04:44:42;6.82;;;2.80;;
68985;SDS011;56035;37.534;-122.308;2024-02-23T04:47:08;10.07;;;2.50;;
68985;SDS011;56035;37.534;-122.308;2024-02-23T04:49:35;12.48;;;3.50;;
68985;SDS011;56035;37.534;-122.308;2024-02-23T04:52:01;7.47;;;2.65;;
68985;SDS011;56035;37.534;-122.308;2024-02-23T04:54:28;5.70;;;2.47;;
68985;SDS011;56035;37.534;-122.308;2024-02-23T04:56:54;9.23;;;2.90;;
68985;SDS011;56035;37.534;-122.308;2024-02-23T04:59:21;8.52;;;3.17;;
68985;SDS011;56035;37.534;-122.308;2024-02-23T05:01:50;9.73;;;3.03;;
68985;SDS011;56035;37.534;-122.308;2024-02-23T05:04:16;6.60;;;2.83;;
68985;SDS011;56035;37.534;-122.308;2024-02-23T05:06:43;9.88;;;3.22;;
68985;SDS011;56035;37.534;-122.308;2024-02-23T05:09:09;14.43;;;2.97;;
68985;SDS011;56035;37.534;-122.308;2024-02-23T05:11:37;8.60;;;2.80;;
68985;SDS011;56035;37.534;-122.308;2024-02-23T05:14:04;13.53;;;3.00;;
68985;SDS011;56035;37.534;-122.308;2024-02-23T05:16:31;9.07;;;3.00;;
68985;SDS011;56035;37.534;-122.308;2024-02-23T05:18:57;11.07;;;3.15;;
68985;SDS011;56035;37.534;-122.308;2024-02-23T05:21:24;12.50;;;3.45;;
68985;SDS011;56035;37.534;-122.308;2024-02-23T05:23:51;9.43;;;2.88;;
68985;SDS011;56035;37.534;-122.308;2024-02-23T05:26:17;10.65;;;3.45;;
68985;SDS011;56035;37.534;-122.308;2024-02-23T05:28:44;11.25;;;2.83;;
68985;SDS011;56035;37.534;-122.308;2024-02-23T05:31:10;13.52;;;3.83;;
68985;SDS011;56035;37.534;-122.308;2024-02-23T05:33:36;11.57;;;3.40;;
68985;SDS011;56035;37.534;-122.308;2024-02-23T05:38:30;8.00;;;3.00;;
68985;SDS011;56035;37.534;-122.308;2024-02-23T05:40:56;15.20;;;3.75;;
68985;SDS011;56035;37.534;-122.308;2024-02-23T05:43:22;6.78;;;3.38;;
68985;SDS011;56035;37.534;-122.308;2024-02-23T05:45:49;11.00;;;3.28;;
68985;SDS011;56035;37.534;-122.308;2024-02-23T05:48:15;8.65;;;3.00;;
68985;SDS011;56035;37.534;-122.308;2024-02-23T05:50:44;11.47;;;2.93;;
68985;SDS011;56035;37.534;-122.308;2024-02-23T05:53:10;9.55;;;3.30;;
68985;SDS011;56035;37.534;-122.308;2024-02-23T05:55:36;12.90;;;3.75;;
68985;SDS011;56035;37.534;-122.308;2024-02-23T05:58:03;10.23;;;2.92;;
68985;SDS011;56035;37.534;-122.308;2024-02-23T06:00:30;7.67;;;3.20;;
68985;SDS011;56035;37.534;-122.308;2024-02-23T06:02:57;9.00;;;3.40;;
68985;SDS011;56035;37.534;-122.308;2024-02-23T06:05:23;10.55;;;3.25;;
68985;SDS011;56035;37.534;-122.308;2024-02-23T06:07:49;8.55;;;3.50;;
68985;SDS011;56035;37.534;-122.308;2024-02-23T06:10:16;8.60;;;3.50;;
68985;SDS011;56035;37.534;-122.308;2024-02-23T06:12:42;12.73;;;3.35;;
68985;SDS011;56035;37.534;-122.308;2024-02-23T06:15:08;9.13;;;3.33;;
68985;SDS011;56035;37.534;-122.308;2024-02-23T06:17:35;9.88;;;3.50;;
68985;SDS011;56035;37.534;-122.308;2024-02-23T06:20:01;9.10;;;3.63;;
68985;SDS011;56035;37.534;-122.308;2024-02-23T06:22:28;8.27;;;3.33;;
68985;SDS011;56035;37.534;-122.308;2024-02-23T06:24:55;8.52;;;3.92;;
68985;SDS011;56035;37.534;-122.308;2024-02-23T06:27:21;13.77;;;3.38;;
68985;SDS011;56035;37.534;-122.308;2024-02-23T06:29:48;9.52;;;3.63;;
68985;SDS011;56035;37.534;-122.308;2024-02-23T06:32:14;10.93;;;3.90;;
68985;SDS011;56035;37.534;-122.308;2024-02-23T06:37:07;6.47;;;3.30;;
68985;SDS011;56035;37.534;-122.308;2024-02-23T06:39:33;11.98;;;3.58;;
68985;SDS011;56035;37.534;-122.308;2024-02-23T06:42:00;10.10;;;3.53;;
68985;SDS011;56035;37.534;-122.308;2024-02-23T06:44:29;8.63;;;3.90;;
68985;SDS011;56035;37.534;-122.308;2024-02-23T06:46:56;10.63;;;3.75;;
68985;SDS011;56035;37.534;-122.308;2024-02-23T06:49:22;11.48;;;3.92;;
68985;SDS011;56035;37.534;-122.308;2024-02-23T06:51:49;7.82;;;3.85;;
68985;SDS011;56035;37.534;-122.308;2024-02-23T06:54:15;13.35;;;3.95;;
68985;SDS011;56035;37.534;-122.308;2024-02-23T06:56:42;10.40;;;3.63;;
68985;SDS011;56035;37.534;-122.308;2024-02-23T06:59:09;12.48;;;4.45;;
68985;SDS011;56035;37.534;-122.308;2024-02-23T07:01:35;9.77;;;3.88;;
68985;SDS011;56035;37.534;-122.308;2024-02-23T07:06:28;12.93;;;4.03;;
68985;SDS011;56035;37.534;-122.308;2024-02-23T07:08:56;9.73;;;3.67;;
68985;SDS011;56035;37.534;-122.308;2024-02-23T07:11:22;10.52;;;3.80;;
68985;SDS011;56035;37.534;-122.308;2024-02-23T07:13:49;7.35;;;3.70;;
68985;SDS011;56035;37.534;-122.308;2024-02-23T07:16:16;9.53;;;3.63;;
68985;SDS011;56035;37.534;-122.308;2024-02-23T07:18:42;8.75;;;3.95;;
68985;SDS011;56035;37.534;-122.308;2024-02-23T07:21:09;10.75;;;3.85;;
68985;SDS011;56035;37.534;-122.308;2024-02-23T07:23:35;10.93;;;3.83;;
68985;SDS011;56035;37.534;-122.308;2024-02-23T07:26:01;9.15;;;4.18;;
68985;SDS011;56035;37.534;-122.308;2024-02-23T07:28:28;12.52;;;3.80;;
68985;SDS011;56035;37.534;-122.308;2024-02-23T07:30:54;13.25;;;4.20;;
68985;SDS011;56035;37.534;-122.308;2024-02-23T07:33:20;13.27;;;4.45;;
68985;SDS011;56035;37.534;-122.308;2024-02-23T07:35:47;9.18;;;3.58;;
68985;SDS011;56035;37.534;-122.308;2024-02-23T07:38:13;11.18;;;3.72;;
68985;SDS011;56035;37.534;-122.308;2024-02-23T07:40:39;15.02;;;4.35;;
68985;SDS011;56035;37.534;-122.308;2024-02-23T07:43:06;14.38;;;4.15;;
68985;SDS011;56035;37.534;-122.308;2024-02-23T07:45:32;9.30;;;3.70;;
68985;SDS011;56035;37.534;-122.308;2024-02-23T07:48:00;7.50;;;3.50;;
68985;SDS011;56035;37.534;-122.308;2024-02-23T07:50:26;9.68;;;3.47;;
68985;SDS011;56035;37.534;-122.308;2024-02-23T07:52:53;8.68;;;3.78;;
68985;SDS011;56035;37.534;-122.308;2024-02-23T07:55:19;8.55;;;3.65;;
68985;SDS011;56035;37.534;-122.308;2024-02-23T07:57:45;8.70;;;3.58;;
68985;SDS011;56035;37.534;-122.308;2024-02-23T08:00:12;14.45;;;3.65;;
68985;SDS011;56035;37.534;-122.308;2024-02-23T08:02:39;10.98;;;4.20;;
68985;SDS011;56035;37.534;-122.308;2024-02-23T08:05:06;11.23;;;3.50;;
68985;SDS011;56035;37.534;-122.308;2024-02-23T08:07:33;9.10;;;3.60;;
68985;SDS011;56035;37.534;-122.308;2024-02-23T08:09:59;10.23;;;3.38;;
68985;SDS011;56035;37.534;-122.308;2024-02-23T08:12:28;9.93;;;3.93;;
68985;SDS011;56035;37.534;-122.308;2024-02-23T08:14:54;11.10;;;4.28;;
68985;SDS011;56035;37.534;-122.308;2024-02-23T08:17:21;12.95;;;4.30;;
68985;SDS011;56035;37.534;-122.308;2024-02-23T08:19:47;12.00;;;3.88;;
68985;SDS011;56035;37.534;-122.308;2024-02-23T08:22:13;13.40;;;4.05;;
68985;SDS011;56035;37.534;-122.308;2024-02-23T08:24:40;9.43;;;3.58;;
68985;SDS011;56035;37.534;-122.308;2024-02-23T08:27:06;12.63;;;3.92;;
68985;SDS011;56035;37.534;-122.308;2024-02-23T08:29:32;13.00;;;4.05;;
68985;SDS011;56035;37.534;-122.308;2024-02-23T08:31:59;10.43;;;3.60;;
68985;SDS011;56035;37.534;-122.308;2024-02-23T08:34:25;14.48;;;4.30;;
68985;SDS011;56035;37.534;-122.308;2024-02-23T08:36:52;15.32;;;3.53;;
68985;SDS011;56035;37.534;-122.308;2024-02-23T08:39:18;10.57;;;3.90;;
68985;SDS011;56035;37.534;-122.308;2024-02-23T08:41:47;14.10;;;4.00;;
68985;SDS011;56035;37.534;-122.308;2024-02-23T08:44:13;9.40;;;3.85;;
68985;SDS011;56035;37.534;-122.308;2024-02-23T08:46:40;10.25;;;4.45;;
68985;SDS011;56035;37.534;-122.308;2024-02-23T08:49:06;11.27;;;3.83;;
68985;SDS011;56035;37.534;-122.308;2024-02-23T08:51:32;14.13;;;4.28;;
68985;SDS011;56035;37.534;-122.308;2024-02-23T08:53:59;10.15;;;4.30;;
68985;SDS011;56035;37.534;-122.308;2024-02-23T08:56:30;10.67;;;4.50;;
68985;SDS011;56035;37.534;-122.308;2024-02-23T08:58:57;13.40;;;4.07;;
68985;SDS011;56035;37.534;-122.308;2024-02-23T09:01:23;10.98;;;4.32;;
68985;SDS011;56035;37.534;-122.308;2024-02-23T09:03:50;11.27;;;4.00;;
68985;SDS011;56035;37.534;-122.308;2024-02-23T09:06:16;11.10;;;4.35;;
68985;SDS011;56035;37.534;-122.308;2024-02-23T09:08:42;11.60;;;3.92;;
68985;SDS011;56035;37.534;-122.308;2024-02-23T09:11:09;10.35;;;4.32;;
68985;SDS011;56035;37.534;-122.308;2024-02-23T09:13:38;11.87;;;4.27;;
68985;SDS011;56035;37.534;-122.308;2024-02-23T09:16:06;14.83;;;4.17;;
68985;SDS011;56035;37.534;-122.308;2024-02-23T09:18:34;13.13;;;4.70;;
68985;SDS011;56035;37.534;-122.308;2024-02-23T09:21:00;12.57;;;4.80;;
68985;SDS011;56035;37.534;-122.308;2024-02-23T09:23:27;11.73;;;4.25;;
68985;SDS011;56035;37.534;-122.308;2024-02-23T09:25:53;8.85;;;3.55;;
68985;SDS011;56035;37.534;-122.308;2024-02-23T09:28:20;11.30;;;4.38;;
68985;SDS011;56035;37.534;-122.308;2024-02-23T09:30:46;12.57;;;4.70;;
68985;SDS011;56035;37.534;-122.308;2024-02-23T09:33:12;11.10;;;4.40;;
68985;SDS011;56035;37.534;-122.308;2024-02-23T09:35:39;12.75;;;4.60;;
68985;SDS011;56035;37.534;-122.308;2024-02-23T09:38:05;10.80;;;4.40;;
68985;SDS011;56035;37.534;-122.308;2024-02-23T09:40:31;12.57;;;4.70;;
68985;SDS011;56035;37.534;-122.308;2024-02-23T09:42:58;9.90;;;4.78;;
68985;SDS011;56035;37.534;-122.308;2024-02-23T09:45:25;10.50;;;4.68;;
68985;SDS011;56035;37.534;-122.308;2024-02-23T09:47:56;11.90;;;4.70;;
68985;SDS011;56035;37.534;-122.308;2024-02-23T09:50:23;15.07;;;4.57;;
68985;SDS011;56035;37.534;-122.308;2024-02-23T09:55:16;11.33;;;4.77;;
68985;SDS011;56035;37.534;-122.308;2024-02-23T09:57:44;14.83;;;5.33;;
68985;SDS011;56035;37.534;-122.308;2024-02-23T10:00:11;11.07;;;4.20;;
68985;SDS011;56035;37.534;-122.308;2024-02-23T10:02:38;11.32;;;4.20;;
68985;SDS011;56035;37.534;-122.308;2024-02-23T10:05:06;10.33;;;4.07;;
68985;SDS011;56035;37.534;-122.308;2024-02-23T10:07:33;12.37;;;4.43;;
68985;SDS011;56035;37.534;-122.308;2024-02-23T10:10:00;14.45;;;4.05;;
68985;SDS011;56035;37.534;-122.308;2024-02-23T10:12:26;10.82;;;4.45;;
68985;SDS011;56035;37.534;-122.308;2024-02-23T10:14:53;8.43;;;4.32;;
68985;SDS011;56035;37.534;-122.308;2024-02-23T10:17:20;14.25;;;4.65;;
68985;SDS011;56035;37.534;-122.308;2024-02-23T10:19:46;8.60;;;4.53;;
68985;SDS011;56035;37.534;-122.308;2024-02-23T10:22:13;8.98;;;4.85;;
68985;SDS011;56035;37.534;-122.308;2024-02-23T10:24:39;10.52;;;4.72;;
68985;SDS011;56035;37.534;-122.308;2024-02-23T10:27:08;11.80;;;4.50;;
68985;SDS011;56035;37.534;-122.308;2024-02-23T10:29:35;11.15;;;4.45;;
68985;SDS011;56035;37.534;-122.308;2024-02-23T10:32:01;9.48;;;4.47;;
68985;SDS011;56035;37.534;-122.308;2024-02-23T10:34:28;12.73;;;4.73;;
68985;SDS011;56035;37.534;-122.308;2024-02-23T10:36:55;10.47;;;4.50;;
68985;SDS011;56035;37.534;-122.308;2024-02-23T10:39:22;13.80;;;4.80;;
68985;SDS011;56035;37.534;-122.308;2024-02-23T10:41:53;11.17;;;5.00;;
68985;SDS011;56035;37.534;-122.308;2024-02-23T10:44:26;14.53;;;5.30;;
68985;SDS011;56035;37.534;-122.308;2024-02-23T10:46:54;13.93;;;5.27;;
68985;SDS011;56035;37.534;-122.308;2024-02-23T10:51:51;12.20;;;4.70;;
68985;SDS011;56035;37.534;-122.308;2024-02-23T10:54:19;12.38;;;4.85;;
68985;SDS011;56035;37.534;-122.308;2024-02-23T10:56:47;14.77;;;5.20;;
68985;SDS011;56035;37.534;-122.308;2024-02-23T10:59:14;12.40;;;5.03;;
68985;SDS011;56035;37.534;-122.308;2024-02-23T11:01:47;13.67;;;5.33;;
68985;SDS011;56035;37.534;-122.308;2024-02-23T11:04:15;13.43;;;5.17;;
68985;SDS011;56035;37.534;-122.308;2024-02-23T11:06:42;14.27;;;5.70;;
68985;SDS011;56035;37.534;-122.308;2024-02-23T11:09:15;16.53;;;5.50;;
68985;SDS011;56035;37.534;-122.308;2024-02-23T11:12:03;14.93;;;5.45;;
68985;SDS011;56035;37.534;-122.308;2024-02-23T11:17:03;13.40;;;5.30;;
68985;SDS011;56035;37.534;-122.308;2024-02-23T11:20:14;13.88;;;5.50;;
68985;SDS011;56035;37.534;-122.308;2024-02-23T11:22:26;15.87;;;5.87;;
68985;SDS011;56035;37.534;-122.308;2024-02-23T11:25:00;12.60;;;5.40;;
68985;SDS011;56035;37.534;-122.308;2024-02-23T11:27:31;14.97;;;5.53;;
68985;SDS011;56035;37.534;-122.308;2024-02-23T11:30:02;13.50;;;5.07;;
68985;SDS011;56035;37.534;-122.308;2024-02-23T11:35:25;14.93;;;5.43;;
68985;SDS011;56035;37.534;-122.308;2024-02-23T11:37:54;11.50;;;5.10;;
68985;SDS011;56035;37.534;-122.308;2024-02-23T11:40:30;15.53;;;5.43;;
68985;SDS011;56035;37.534;-122.308;2024-02-23T11:42:57;11.97;;;5.30;;
68985;SDS011;56035;37.534;-122.308;2024-02-23T11:45:30;13.93;;;5.60;;
68985;SDS011;56035;37.534;-122.308;2024-02-23T11:47:56;10.90;;;5.10;;
68985;SDS011;56035;37.534;-122.308;2024-02-23T11:50:24;14.40;;;6.10;;
68985;SDS011;56035;37.534;-122.308;2024-02-23T11:52:50;16.80;;;6.63;;
68985;SDS011;56035;37.534;-122.308;2024-02-23T11:55:20;13.90;;;6.05;;
68985;SDS011;56035;37.534;-122.308;2024-02-23T11:57:49;14.70;;;6.77;;
68985;SDS011;56035;37.534;-122.308;2024-02-23T12:00:16;21.00;;;7.28;;
68985;SDS011;56035;37.534;-122.308;2024-02-23T12:02:45;18.00;;;7.07;;
68985;SDS011;56035;37.534;-122.308;2024-02-23T12:05:14;21.50;;;7.37;;
68985;SDS011;56035;37.534;-122.308;2024-02-23T12:10:08;15.20;;;6.77;;
68985;SDS011;56035;37.534;-122.308;2024-02-23T12:12:36;18.17;;;6.77;;
68985;SDS011;56035;37.534;-122.308;2024-02-23T12:15:02;23.67;;;7.45;;
68985;SDS011;56035;37.534;-122.308;2024-02-23T12:17:29;20.13;;;7.63;;
68985;SDS011;56035;37.534;-122.308;2024-02-23T12:19:59;21.77;;;8.18;;
68985;SDS011;56035;37.534;-122.308;2024-02-23T12:22:25;25.30;;;7.83;;
68985;SDS011;56035;37.534;-122.308;2024-02-23T12:24:52;20.30;;;8.10;;
68985;SDS011;56035;37.534;-122.308;2024-02-23T12:27:19;19.80;;;8.75;;
68985;SDS011;56035;37.534;-122.308;2024-02-23T12:29:53;21.30;;;8.27;;
68985;SDS011;56035;37.534;-122.308;2024-02-23T12:32:20;26.40;;;8.83;;
68985;SDS011;56035;37.534;-122.308;2024-02-23T12:34:47;24.50;;;8.90;;
68985;SDS011;56035;37.534;-122.308;2024-02-23T12:37:17;21.92;;;8.02;;
68985;SDS011;56035;37.534;-122.308;2024-02-23T12:39:43;22.13;;;8.50;;
68985;SDS011;56035;37.534;-122.308;2024-02-23T12:42:10;20.90;;;8.15;;
68985;SDS011;56035;37.534;-122.308;2024-02-23T12:44:36;26.55;;;9.00;;
68985;SDS011;56035;37.534;-122.308;2024-02-23T12:47:03;26.73;;;9.57;;
68985;SDS011;56035;37.534;-122.308;2024-02-23T12:49:29;22.23;;;8.63;;
68985;SDS011;56035;37.534;-122.308;2024-02-23T12:51:56;25.67;;;9.38;;
68985;SDS011;56035;37.534;-122.308;2024-02-23T12:54:22;22.08;;;8.77;;
68985;SDS011;56035;37.534;-122.308;2024-02-23T12:56:49;27.23;;;9.73;;
68985;SDS011;56035;37.534;-122.308;2024-02-23T12:59:15;28.35;;;9.40;;
68985;SDS011;56035;37.534;-122.308;2024-02-23T13:01:41;23.15;;;9.43;;
68985;SDS011;56035;37.534;-122.308;2024-02-23T13:04:08;27.15;;;9.18;;
68985;SDS011;56035;37.534;-122.308;2024-02-23T13:06:39;24.60;;;8.50;;
68985;SDS011;56035;37.534;-122.308;2024-02-23T13:09:06;24.75;;;9.30;;
68985;SDS011;56035;37.534;-122.308;2024-02-23T13:11:38;23.97;;;9.00;;
68985;SDS011;56035;37.534;-122.308;2024-02-23T13:16:30;17.53;;;7.93;;
68985;SDS011;56035;37.534;-122.308;2024-02-23T13:18:57;26.58;;;7.82;;
68985;SDS011;56035;37.534;-122.308;2024-02-23T13:21:23;20.08;;;8.18;;
68985;SDS011;56035;37.534;-122.308;2024-02-23T13:23:49;13.43;;;4.97;;
68985;SDS011;56035;37.534;-122.308;2024-02-23T13:26:16;20.58;;;7.55;;
68985;SDS011;56035;37.534;-122.308;2024-02-23T13:28:43;18.20;;;7.07;;
68985;SDS011;56035;37.534;-122.308;2024-02-23T13:33:35;21.77;;;7.23;;
68985;SDS011;56035;37.534;-122.308;2024-02-23T13:36:02;11.15;;;4.97;;
68985;SDS011;56035;37.534;-122.308;2024-02-23T13:38:28;22.67;;;6.78;;
68985;SDS011;56035;37.534;-122.308;2024-02-23T13:40:55;20.33;;;6.97;;
68985;SDS011;56035;37.534;-122.308;2024-02-23T13:43:22;19.25;;;7.35;;
68985;SDS011;56035;37.534;-122.308;2024-02-23T13:45:49;16.90;;;6.82;;
68985;SDS011;56035;37.534;-122.308;2024-02-23T13:48:16;19.73;;;6.97;;
68985;SDS011;56035;37.534;-122.308;2024-02-23T13:50:46;24.20;;;7.13;;
68985;SDS011;56035;37.534;-122.308;2024-02-23T13:53:13;21.92;;;7.68;;
68985;SDS011;56035;37.534;-122.308;2024-02-23T13:55:40;21.15;;;8.05;;
68985;SDS011;56035;37.534;-122.308;2024-02-23T13:58:09;18.77;;;7.13;;
68985;SDS011;56035;37.534;-122.308;2024-02-23T14:00:37;23.33;;;7.73;;
68985;SDS011;56035;37.534;-122.308;2024-02-23T14:03:03;21.00;;;7.60;;
68985;SDS011;56035;37.534;-122.308;2024-02-23T14:05:30;19.85;;;8.30;;
68985;SDS011;56035;37.534;-122.308;2024-02-23T14:07:56;21.83;;;8.27;;
68985;SDS011;56035;37.534;-122.308;2024-02-23T14:10:23;26.88;;;8.95;;
68985;SDS011;56035;37.534;-122.308;2024-02-23T14:12:49;25.88;;;9.82;;
68985;SDS011;56035;37.534;-122.308;2024-02-23T14:15:16;28.17;;;9.63;;
68985;SDS011;56035;37.534;-122.308;2024-02-23T14:17:42;20.05;;;6.30;;
68985;SDS011;56035;37.534;-122.308;2024-02-23T14:20:09;24.85;;;9.70;;
68985;SDS011;56035;37.534;-122.308;2024-02-23T14:22:36;30.35;;;9.27;;
68985;SDS011;56035;37.534;-122.308;2024-02-23T14:25:02;28.38;;;9.90;;
68985;SDS011;56035;37.534;-122.308;2024-02-23T14:27:28;30.88;;;10.07;;
68985;SDS011;56035;37.534;-122.308;2024-02-23T14:29:55;28.45;;;10.23;;
68985;SDS011;56035;37.534;-122.308;2024-02-23T14:32:21;29.38;;;10.43;;